Plum, Texas
Current Conditions -  °F | °C
As of 7:30 PM on Thursday 27 Nov 2014 (Local Time) from K3T5 Reporting Station
Clear Clear  
Wind Chill: 50°   Ceiling: Unl
Heat Index: 50°   Visibility: 10mi
Dew Point: 41°   Wind: 0mph
Humidity: 70%   Direction: NA
Pressure: 30.4"   Gusts: NA
Location:  29.93°N, 96.97°W
Report Text: K3T5 280130Z AUTO 00000KT 10SM CLR 10/05 A3040 RMK AO2 T01020049
Loading
Personal Weather Stations






























Interactive Weather Map New forecast layout! Learn more

10-Day Weather Forecast

Advertisements
Track Severe Weather on mobile